Time;durP1;ratioP1;P1;durP2;ratioP2;P2;SDS_P1;SDS_P2;PMS_P1;PMS_P2;Temp;Humidity;BMP_temperature;BMP_pressure;BME280_temperature;BME280_humidity;BME280_pressure;Samples;Min_cycle;Max_cycle;Signal;HPM_P1;HPM_P2
2023/07/10 00:00:46;;;;;;;;;;;18.40;99.90;;;;;;5117603;27;19962;-79
2023/07/10 00:03:18;;;;;;;;;;;18.30;99.90;;;;;;5134559;27;20010;-80
2023/07/10 00:05:44;;;;;;;;;;;18.40;99.90;;;;;;5135020;27;20288;-79
2023/07/10 00:08:10;;;;;;;;;;;18.30;99.90;;;;;;5117190;27;19919;-78
2023/07/10 00:10:35;;;;;;;;;;;18.30;99.90;;;;;;5134752;27;19982;-78
2023/07/10 00:13:01;;;;;;;;;;;18.30;99.90;;;;;;5117321;27;19965;-78
2023/07/10 00:15:26;;;;;;;;;;;18.30;99.90;;;;;;5134633;27;19930;-77
2023/07/10 00:17:52;;;;;;;;;;;18.30;99.90;;;;;;5118024;27;19923;-78
2023/07/10 00:20:19;;;;;;;;;;;18.30;99.90;;;;;;5134901;27;20105;-78
2023/07/10 00:22:45;;;;;;;;;;;18.30;99.90;;;;;;5135343;27;19934;-78
2023/07/10 00:25:11;;;;;;;;;;;18.30;99.90;;;;;;5118211;27;19920;-79
2023/07/10 00:27:47;;;;;;;;;;;18.30;99.90;;;;;;5135628;27;20399;-77
2023/07/10 00:30:17;;;;;;;;;;;18.30;99.90;;;;;;5153499;27;20033;-78
2023/07/10 00:32:43;;;;;;;;;;;18.30;99.90;;;;;;5117957;27;19934;-78
2023/07/10 00:35:11;;;;;;;;;;;18.20;99.90;;;;;;5135939;27;20010;-79
2023/07/10 00:37:36;;;;;;;;;;;18.20;99.90;;;;;;5121852;27;19923;-80
2023/07/10 00:40:15;;;;;;;;;;;18.20;99.90;;;;;;5138458;27;19930;-79
2023/07/10 00:42:46;;;;;;;;;;;18.20;99.90;;;;;;5157064;27;19927;-78
2023/07/10 00:45:13;;;;;;;;;;;18.20;99.90;;;;;;5139108;27;19930;-78
2023/07/10 00:47:41;;;;;;;;;;;18.20;99.90;;;;;;5138627;27;19926;-78
2023/07/10 00:50:28;;;;;;;;;;;18.20;99.90;;;;;;5146363;27;19929;-78
2023/07/10 00:52:55;;;;;;;;;;;18.20;99.90;;;;;;5118321;27;19919;-79
2023/07/10 00:55:21;;;;;;;;;;;18.20;99.90;;;;;;5132285;27;19919;-78
2023/07/10 00:57:48;;;;;;;;;;;18.20;99.90;;;;;;5156139;27;19927;-79
2023/07/10 01:00:34;;;;;;;;;;;18.20;99.90;;;;;;5120768;27;19971;-78
2023/07/10 01:02:59;;;;;;;;;;;18.20;99.90;;;;;;5138333;27;19993;-79
2023/07/10 01:05:25;;;;;;;;;;;18.20;99.90;;;;;;5138857;27;20398;-79
2023/07/10 01:07:53;;;;;;;;;;;18.10;99.90;;;;;;5138357;27;19929;-79
2023/07/10 01:10:19;;;;;;;;;;;18.10;99.90;;;;;;5138190;27;20261;-79
2023/07/10 01:12:45;;;;;;;;;;;18.10;99.90;;;;;;5138484;27;19930;-79
2023/07/10 01:15:13;;;;;;;;;;;18.10;99.90;;;;;;5138191;27;19919;-78
2023/07/10 01:17:39;;;;;;;;;;;18.10;99.90;;;;;;5138441;27;19923;-79
2023/07/10 01:20:22;;;;;;;;;;;18.00;99.90;;;;;;5137871;27;19922;-77
2023/07/10 01:22:47;;;;;;;;;;;18.00;99.90;;;;;;5137983;27;20230;-78
2023/07/10 01:25:13;;;;;;;;;;;17.90;99.90;;;;;;5120711;27;19967;-79
2023/07/10 01:27:39;;;;;;;;;;;17.90;99.90;;;;;;5134050;27;19934;-77
2023/07/10 01:30:21;;;;;;;;;;;17.80;99.90;;;;;;5117050;27;20387;-78
2023/07/10 01:32:56;;;;;;;;;;;17.80;99.90;;;;;;5135609;27;19930;-78
2023/07/10 01:35:23;;;;;;;;;;;17.70;99.90;;;;;;5099610;27;19926;-80
2023/07/10 01:37:50;;;;;;;;;;;17.70;99.90;;;;;;5134258;27;19919;-79
2023/07/10 01:40:19;;;;;;;;;;;17.70;99.90;;;;;;5134343;27;20344;-79
2023/07/10 01:42:44;;;;;;;;;;;17.70;99.90;;;;;;5134142;27;19927;-77
2023/07/10 01:45:12;;;;;;;;;;;17.60;99.90;;;;;;5133794;27;19930;-78
2023/07/10 01:47:37;;;;;;;;;;;17.60;99.90;;;;;;5117717;27;20364;-79
2023/07/10 01:50:03;;;;;;;;;;;17.60;99.90;;;;;;5134566;27;19929;-79
2023/07/10 01:52:29;;;;;;;;;;;17.60;99.90;;;;;;5134085;27;19949;-77
2023/07/10 01:54:55;;;;;;;;;;;17.50;99.90;;;;;;5134363;27;20011;-79
2023/07/10 01:57:23;;;;;;;;;;;17.60;99.90;;;;;;5116468;27;20381;-78
2023/07/10 01:59:52;;;;;;;;;;;17.60;99.90;;;;;;5134233;27;19925;-78
2023/07/10 02:02:18;;;;;;;;;;;17.50;99.90;;;;;;5133858;27;19942;-79
2023/07/10 02:04:44;;;;;;;;;;;17.60;99.90;;;;;;5134173;27;19927;-78
2023/07/10 02:07:09;;;;;;;;;;;17.60;99.90;;;;;;5116499;27;19995;-78
2023/07/10 02:09:35;;;;;;;;;;;17.50;99.90;;;;;;5134780;27;20326;-77
2023/07/10 02:12:01;;;;;;;;;;;17.60;99.90;;;;;;5116647;27;19923;-78
2023/07/10 02:14:27;;;;;;;;;;;17.50;99.90;;;;;;5134190;27;19930;-78
2023/07/10 02:16:53;;;;;;;;;;;17.50;99.90;;;;;;5133791;27;20006;-77
2023/07/10 02:19:19;;;;;;;;;;;17.50;99.90;;;;;;5133387;27;20011;-79
2023/07/10 02:21:44;;;;;;;;;;;17.40;99.90;;;;;;5116771;27;19923;-78
2023/07/10 02:24:10;;;;;;;;;;;17.40;99.90;;;;;;5132741;27;19927;-79
2023/07/10 02:26:36;;;;;;;;;;;17.40;99.90;;;;;;5116117;27;19951;-79
2023/07/10 02:29:02;;;;;;;;;;;17.40;99.90;;;;;;5134082;27;20011;-78
2023/07/10 02:31:28;;;;;;;;;;;17.40;99.90;;;;;;5133232;27;19934;-77
2023/07/10 02:33:57;;;;;;;;;;;17.40;99.90;;;;;;5116679;27;19924;-77
2023/07/10 02:36:25;;;;;;;;;;;17.40;99.90;;;;;;5116294;27;19923;-79
2023/07/10 02:38:52;;;;;;;;;;;17.40;99.90;;;;;;5116170;27;19923;-79
2023/07/10 02:41:18;;;;;;;;;;;17.40;99.90;;;;;;5116216;27;19927;-79
2023/07/10 02:43:44;;;;;;;;;;;17.40;99.90;;;;;;5133257;27;20379;-80
2023/07/10 02:46:09;;;;;;;;;;;17.40;99.90;;;;;;5133486;27;19919;-80
2023/07/10 02:48:35;;;;;;;;;;;17.40;99.90;;;;;;5133294;27;20568;-78
2023/07/10 02:51:01;;;;;;;;;;;17.40;99.90;;;;;;5113597;27;20291;-78
2023/07/10 02:53:27;;;;;;;;;;;17.40;99.90;;;;;;5116015;27;20360;-79
2023/07/10 02:55:53;;;;;;;;;;;17.40;99.90;;;;;;5115570;27;19926;-79
2023/07/10 02:58:20;;;;;;;;;;;17.40;99.90;;;;;;5114353;27;19919;-79
2023/07/10 03:00:54;;;;;;;;;;;17.40;99.90;;;;;;5115630;27;19927;-79
2023/07/10 03:03:19;;;;;;;;;;;17.40;99.90;;;;;;5132323;27;19927;-78
2023/07/10 03:05:51;;;;;;;;;;;17.40;99.90;;;;;;5115864;27;19923;-78
2023/07/10 03:08:17;;;;;;;;;;;17.40;99.90;;;;;;5132332;27;19947;-77
2023/07/10 03:10:43;;;;;;;;;;;17.40;99.90;;;;;;5133191;27;20038;-79
2023/07/10 03:13:08;;;;;;;;;;;17.40;99.90;;;;;;5116178;27;19919;-78
2023/07/10 03:15:37;;;;;;;;;;;17.40;99.90;;;;;;5132672;27;19979;-78
2023/07/10 03:18:02;;;;;;;;;;;17.40;99.90;;;;;;5133004;27;19927;-78
2023/07/10 03:20:28;;;;;;;;;;;17.40;99.90;;;;;;5132516;27;19962;-77
2023/07/10 03:22:53;;;;;;;;;;;17.40;99.90;;;;;;5132431;27;19924;-79
2023/07/10 03:25:19;;;;;;;;;;;17.40;99.90;;;;;;5114988;27;19924;-78
2023/07/10 03:27:46;;;;;;;;;;;17.40;99.90;;;;;;5131368;27;20268;-78
2023/07/10 03:30:12;;;;;;;;;;;17.40;99.90;;;;;;5131333;27;19923;-78
2023/07/10 03:32:37;;;;;;;;;;;17.40;99.90;;;;;;5131177;27;20309;-77
2023/07/10 03:35:03;;;;;;;;;;;17.40;99.90;;;;;;5131350;27;19926;-79
2023/07/10 03:37:29;;;;;;;;;;;17.40;99.90;;;;;;5131496;27;20126;-78
2023/07/10 03:39:54;;;;;;;;;;;17.40;99.90;;;;;;5114713;27;20361;-78
2023/07/10 03:42:20;;;;;;;;;;;17.40;99.90;;;;;;5131942;27;19926;-79
2023/07/10 03:44:46;;;;;;;;;;;17.40;99.90;;;;;;5131620;27;19971;-78
2023/07/10 03:47:11;;;;;;;;;;;17.40;99.90;;;;;;5131830;27;19919;-78
2023/07/10 03:49:37;;;;;;;;;;;17.40;99.90;;;;;;5126595;27;19920;-79
2023/07/10 03:52:04;;;;;;;;;;;17.40;99.90;;;;;;5094748;28;19919;-78
2023/07/10 03:54:32;;;;;;;;;;;17.50;99.90;;;;;;5111451;28;19941;-78
2023/07/10 03:56:58;;;;;;;;;;;17.40;99.90;;;;;;5112282;28;19982;-77
2023/07/10 03:59:23;;;;;;;;;;;17.50;99.90;;;;;;5111334;28;19927;-78
2023/07/10 04:01:49;;;;;;;;;;;17.50;99.90;;;;;;5111052;28;19923;-78
2023/07/10 04:04:14;;;;;;;;;;;17.50;99.90;;;;;;5111207;28;19923;-78
2023/07/10 04:06:46;;;;;;;;;;;17.50;99.90;;;;;;5095458;28;19926;-78
2023/07/10 04:09:11;;;;;;;;;;;17.50;99.90;;;;;;5094103;28;19924;-79
2023/07/10 04:11:37;;;;;;;;;;;17.50;99.90;;;;;;5111017;28;20014;-78
2023/07/10 04:14:03;;;;;;;;;;;17.60;99.90;;;;;;5111401;28;19920;-78
2023/07/10 04:16:29;;;;;;;;;;;17.60;99.90;;;;;;5093447;28;20595;-77
2023/07/10 04:18:58;;;;;;;;;;;17.60;99.90;;;;;;5111166;28;19927;-80
2023/07/10 04:21:26;;;;;;;;;;;17.60;99.90;;;;;;5110303;28;19923;-79
2023/07/10 04:23:55;;;;;;;;;;;17.60;99.90;;;;;;5112346;28;20307;-79
2023/07/10 04:26:28;;;;;;;;;;;17.60;99.90;;;;;;5113042;28;20447;-79
2023/07/10 04:28:55;;;;;;;;;;;17.60;99.90;;;;;;5114112;28;19930;-78
2023/07/10 04:31:27;;;;;;;;;;;17.60;99.90;;;;;;5098274;28;19926;-78
2023/07/10 04:33:53;;;;;;;;;;;17.60;99.90;;;;;;5097525;28;19928;-78
2023/07/10 04:36:19;;;;;;;;;;;17.70;99.90;;;;;;5096906;28;20684;-78
2023/07/10 04:38:45;;;;;;;;;;;17.80;99.90;;;;;;5097138;28;19963;-77
2023/07/10 04:41:11;;;;;;;;;;;17.70;99.90;;;;;;5113527;28;19970;-77
2023/07/10 04:43:40;;;;;;;;;;;18.00;99.90;;;;;;5114188;28;20659;-76
2023/07/10 04:46:06;;;;;;;;;;;;;;;;;;5096898;28;19919;-77
2023/07/10 04:48:31;;;;;;;;;;;18.00;99.90;;;;;;5113506;28;19923;-78
2023/07/10 04:50:58;;;;;;;;;;;18.00;99.90;;;;;;5129517;27;19919;-79
2023/07/10 04:53:24;;;;;;;;;;;18.00;99.90;;;;;;5116880;27;19926;-77
2023/07/10 04:55:50;;;;;;;;;;;18.00;99.90;;;;;;5152459;27;19923;-78
2023/07/10 04:58:16;;;;;;;;;;;18.00;99.90;;;;;;5134425;27;19923;-78
2023/07/10 05:00:43;;;;;;;;;;;18.00;99.90;;;;;;5133772;27;20406;-78
2023/07/10 05:03:08;;;;;;;;;;;18.00;99.90;;;;;;5117652;27;19923;-78
2023/07/10 05:05:34;;;;;;;;;;;18.00;99.90;;;;;;5133738;27;19933;-79
2023/07/10 05:08:02;;;;;;;;;;;18.00;99.90;;;;;;5133862;27;20061;-78
2023/07/10 05:10:28;;;;;;;;;;;17.90;99.90;;;;;;5134101;27;19919;-78
2023/07/10 05:12:53;;;;;;;;;;;17.90;99.90;;;;;;5134159;27;20055;-78
2023/07/10 05:15:22;;;;;;;;;;;17.90;99.90;;;;;;5116687;27;20661;-77
2023/07/10 05:17:47;;;;;;;;;;;17.90;99.90;;;;;;5133673;27;19926;-78
2023/07/10 05:20:13;;;;;;;;;;;17.90;99.90;;;;;;5134211;27;19919;-78
2023/07/10 05:22:40;;;;;;;;;;;18.00;99.90;;;;;;5136748;27;20384;-78
2023/07/10 05:25:05;;;;;;;;;;;18.10;99.90;;;;;;5137505;27;19927;-78
2023/07/10 05:27:40;;;;;;;;;;;18.20;99.90;;;;;;5133507;27;20713;-78
2023/07/10 05:30:07;;;;;;;;;;;18.30;99.90;;;;;;5134134;27;19923;-78
2023/07/10 05:32:32;;;;;;;;;;;18.30;99.90;;;;;;5133414;27;19970;-78
2023/07/10 05:34:58;;;;;;;;;;;18.40;99.90;;;;;;5133414;27;19977;-78
2023/07/10 05:37:23;;;;;;;;;;;18.50;99.90;;;;;;5113405;28;19919;-78
2023/07/10 05:39:49;;;;;;;;;;;18.70;99.90;;;;;;5110785;27;20297;-77
2023/07/10 05:42:17;;;;;;;;;;;18.70;99.90;;;;;;5133912;27;19971;-78
2023/07/10 05:44:49;;;;;;;;;;;18.90;99.90;;;;;;5133498;27;19928;-77
2023/07/10 05:47:14;;;;;;;;;;;18.90;99.90;;;;;;5116952;27;19919;-79
2023/07/10 05:49:40;;;;;;;;;;;19.00;99.90;;;;;;5133127;27;19937;-78
2023/07/10 05:52:06;;;;;;;;;;;19.00;99.90;;;;;;5134186;27;20308;-77
2023/07/10 05:54:32;;;;;;;;;;;19.00;99.90;;;;;;5133495;27;19924;-78
2023/07/10 05:56:59;;;;;;;;;;;19.00;99.90;;;;;;5133988;27;19923;-77
2023/07/10 05:59:25;;;;;;;;;;;19.00;99.90;;;;;;5133197;27;20006;-78
2023/07/10 06:01:50;;;;;;;;;;;19.10;99.90;;;;;;5133324;27;20007;-78
2023/07/10 06:04:16;;;;;;;;;;;19.00;99.90;;;;;;5132515;27;20000;-78
2023/07/10 06:06:41;;;;;;;;;;;19.10;99.90;;;;;;5115862;27;19920;-79
2023/07/10 06:09:07;;;;;;;;;;;19.00;99.90;;;;;;5115787;27;19972;-77
2023/07/10 06:11:33;;;;;;;;;;;19.00;99.90;;;;;;5132545;27;20307;-80
2023/07/10 06:13:58;;;;;;;;;;;19.00;99.90;;;;;;5132958;27;19924;-77
2023/07/10 06:16:24;;;;;;;;;;;19.00;99.90;;;;;;5133142;27;19930;-77
2023/07/10 06:18:49;;;;;;;;;;;19.10;99.90;;;;;;5133295;27;19923;-78
2023/07/10 06:21:15;;;;;;;;;;;19.10;99.90;;;;;;5133421;27;19919;-77
2023/07/10 06:23:41;;;;;;;;;;;19.00;99.90;;;;;;5132418;27;20670;-78
2023/07/10 06:26:06;;;;;;;;;;;19.10;99.90;;;;;;5132966;27;20279;-78
2023/07/10 06:28:33;;;;;;;;;;;19.10;99.90;;;;;;5153895;27;19945;-77
2023/07/10 06:31:07;;;;;;;;;;;19.10;99.90;;;;;;5136373;27;19919;-78
2023/07/10 06:33:33;;;;;;;;;;;19.10;99.90;;;;;;5134273;27;19927;-78
2023/07/10 06:35:59;;;;;;;;;;;19.10;99.90;;;;;;5118825;27;19972;-78
2023/07/10 06:38:25;;;;;;;;;;;19.10;99.90;;;;;;5136791;27;19919;-78
2023/07/10 06:40:50;;;;;;;;;;;19.00;99.90;;;;;;5135674;27;19988;-78
2023/07/10 06:43:17;;;;;;;;;;;18.90;99.90;;;;;;5154539;27;19927;-77
2023/07/10 06:45:43;;;;;;;;;;;18.80;99.90;;;;;;5135427;27;19978;-77
2023/07/10 06:48:09;;;;;;;;;;;18.80;99.90;;;;;;5136172;27;19922;-78
2023/07/10 06:50:34;;;;;;;;;;;18.90;99.90;;;;;;5122450;27;19979;-78
2023/07/10 06:53:00;;;;;;;;;;;18.90;99.90;;;;;;5115217;27;19926;-77
2023/07/10 06:55:26;;;;;;;;;;;19.00;99.90;;;;;;5114885;27;19979;-77
2023/07/10 06:57:52;;;;;;;;;;;19.10;99.90;;;;;;5097639;27;20269;-79
2023/07/10 07:00:18;;;;;;;;;;;19.10;99.90;;;;;;5132056;27;19919;-77
2023/07/10 07:02:44;;;;;;;;;;;19.10;99.90;;;;;;5114820;27;20640;-77
2023/07/10 07:05:10;;;;;;;;;;;19.20;99.90;;;;;;5133845;27;19928;-78
2023/07/10 07:07:37;;;;;;;;;;;19.30;99.90;;;;;;5114246;27;19923;-77
2023/07/10 07:10:03;;;;;;;;;;;19.40;99.90;;;;;;5114840;27;19928;-76
2023/07/10 07:12:29;;;;;;;;;;;19.40;99.90;;;;;;5115081;27;19920;-78
2023/07/10 07:14:54;;;;;;;;;;;19.50;99.90;;;;;;5115054;27;20273;-78
2023/07/10 07:17:20;;;;;;;;;;;19.60;99.90;;;;;;5115192;27;20320;-78
2023/07/10 07:19:46;;;;;;;;;;;19.60;99.90;;;;;;5114607;27;19919;-78
2023/07/10 07:22:12;;;;;;;;;;;19.70;99.90;;;;;;5114549;27;19945;-78
2023/07/10 07:24:38;;;;;;;;;;;19.80;99.90;;;;;;5114251;27;19927;-77
2023/07/10 07:27:04;;;;;;;;;;;19.90;99.90;;;;;;5114935;27;19927;-77
2023/07/10 07:29:29;;;;;;;;;;;20.00;99.90;;;;;;5132606;27;20005;-78
2023/07/10 07:31:55;;;;;;;;;;;20.00;99.90;;;;;;5132015;27;20360;-79
2023/07/10 07:34:20;;;;;;;;;;;20.10;99.90;;;;;;5135120;27;20014;-79
2023/07/10 07:36:48;;;;;;;;;;;20.10;99.90;;;;;;5152747;27;19926;-77
2023/07/10 07:39:15;;;;;;;;;;;20.20;99.90;;;;;;5134800;27;19923;-78
2023/07/10 07:41:44;;;;;;;;;;;20.20;99.90;;;;;;5153073;27;19961;-78
2023/07/10 07:44:09;;;;;;;;;;;20.30;99.90;;;;;;5117426;27;19959;-77
2023/07/10 07:46:44;;;;;;;;;;;20.30;99.90;;;;;;5152594;27;19970;-78
2023/07/10 07:49:09;;;;;;;;;;;20.30;99.90;;;;;;5134090;27;19966;-79
2023/07/10 07:51:36;;;;;;;;;;;20.50;99.90;;;;;;5134138;27;19923;-78
2023/07/10 07:54:07;;;;;;;;;;;20.60;99.90;;;;;;5117198;27;20043;-78
2023/07/10 07:56:32;;;;;;;;;;;20.70;99.90;;;;;;5134411;27;20009;-79
2023/07/10 07:58:59;;;;;;;;;;;20.60;99.90;;;;;;5134804;27;19930;-78
2023/07/10 08:01:24;;;;;;;;;;;20.60;99.90;;;;;;5134684;27;19923;-78
2023/07/10 08:03:50;;;;;;;;;;;20.80;99.90;;;;;;5134175;27;19923;-79
2023/07/10 08:06:16;;;;;;;;;;;21.00;99.90;;;;;;5117831;27;19971;-78
2023/07/10 08:08:43;;;;;;;;;;;21.30;99.90;;;;;;5135110;27;19930;-78
2023/07/10 08:11:09;;;;;;;;;;;21.30;99.90;;;;;;5134390;27;19930;-80
2023/07/10 08:13:34;;;;;;;;;;;21.50;99.90;;;;;;5134053;27;20002;-78
2023/07/10 08:16:00;;;;;;;;;;;21.60;99.90;;;;;;5117002;27;19930;-77
2023/07/10 08:18:31;;;;;;;;;;;21.50;99.90;;;;;;5134560;27;20476;-79
2023/07/10 08:21:01;;;;;;;;;;;21.50;99.90;;;;;;5133850;27;20010;-78
2023/07/10 08:23:26;;;;;;;;;;;21.60;99.90;;;;;;5134410;27;19927;-78
2023/07/10 08:25:52;;;;;;;;;;;21.60;99.90;;;;;;5113584;28;20285;-80
2023/07/10 08:28:17;;;;;;;;;;;21.50;99.90;;;;;;5126145;27;20014;-78
2023/07/10 08:30:44;;;;;;;;;;;21.40;99.90;;;;;;5133925;27;19919;-78
2023/07/10 08:33:10;;;;;;;;;;;21.40;99.90;;;;;;5153398;27;20344;-79
2023/07/10 08:35:36;;;;;;;;;;;21.50;99.90;;;;;;5134725;27;19923;-79
2023/07/10 08:38:02;;;;;;;;;;;21.60;99.90;;;;;;5117516;27;20410;-78
2023/07/10 08:40:31;;;;;;;;;;;21.70;99.90;;;;;;5134000;27;19919;-79
2023/07/10 08:42:58;;;;;;;;;;;21.80;99.90;;;;;;5116720;27;19927;-77
2023/07/10 08:45:33;;;;;;;;;;;21.90;99.90;;;;;;5117061;27;19923;-78
2023/07/10 08:48:05;;;;;;;;;;;22.00;99.90;;;;;;5134326;27;19971;-80
2023/07/10 08:50:31;;;;;;;;;;;22.10;99.90;;;;;;5137579;27;19978;-79
2023/07/10 08:53:10;;;;;;;;;;;22.20;99.90;;;;;;5119050;27;20715;-80
2023/07/10 08:55:41;;;;;;;;;;;22.20;99.90;;;;;;5135558;27;19927;-81
2023/07/10 08:58:27;;;;;;;;;;;22.30;99.90;;;;;;5122486;27;19934;-78
2023/07/10 09:00:56;;;;;;;;;;;22.30;99.90;;;;;;5137946;27;19927;-79
2023/07/10 09:03:25;;;;;;;;;;;22.30;99.90;;;;;;5138365;27;19923;-79
2023/07/10 09:05:52;;;;;;;;;;;22.50;99.90;;;;;;5136957;27;20010;-77
2023/07/10 09:08:18;;;;;;;;;;;22.60;99.90;;;;;;5137948;27;19930;-79
2023/07/10 09:10:49;;;;;;;;;;;22.60;99.90;;;;;;5137837;27;19919;-79
2023/07/10 09:13:20;;;;;;;;;;;22.70;99.90;;;;;;5139043;27;20283;-78
2023/07/10 09:15:53;;;;;;;;;;;22.70;99.90;;;;;;5120914;27;19919;-79
2023/07/10 09:18:37;;;;;;;;;;;22.80;99.90;;;;;;5138290;27;19919;-79
2023/07/10 09:21:12;;;;;;;;;;;22.80;99.90;;;;;;5137020;27;20333;-80
2023/07/10 09:23:38;;;;;;;;;;;22.90;99.90;;;;;;5137212;27;19930;-80
2023/07/10 09:26:11;;;;;;;;;;;22.90;99.90;;;;;;5121259;27;19923;-80
2023/07/10 09:28:38;;;;;;;;;;;22.90;99.90;;;;;;5137486;27;19980;-80
2023/07/10 09:31:23;;;;;;;;;;;22.90;99.90;;;;;;5138008;27;20295;-80
2023/07/10 09:33:58;;;;;;;;;;;22.90;99.90;;;;;;5137141;27;19919;-80
2023/07/10 09:36:24;;;;;;;;;;;23.00;99.90;;;;;;5137236;27;19930;-79
2023/07/10 09:38:54;;;;;;;;;;;23.00;99.90;;;;;;5136553;27;20281;-79
2023/07/10 09:41:27;;;;;;;;;;;23.00;99.90;;;;;;5120036;27;19930;-80
2023/07/10 09:44:00;;;;;;;;;;;23.20;99.90;;;;;;5155715;27;20065;-78
2023/07/10 09:46:27;;;;;;;;;;;23.50;99.90;;;;;;5137828;27;19958;-78
2023/07/10 09:48:53;;;;;;;;;;;23.60;99.90;;;;;;5136887;27;19923;-77
2023/07/10 09:51:22;;;;;;;;;;;23.60;99.90;;;;;;5137296;27;20724;-80
2023/07/10 09:53:51;;;;;;;;;;;23.40;99.90;;;;;;5137062;27;19962;-79
2023/07/10 09:56:35;;;;;;;;;;;23.20;99.90;;;;;;5137173;27;19918;-78
2023/07/10 09:59:02;;;;;;;;;;;23.10;99.90;;;;;;5120303;27;20024;-79
2023/07/10 10:01:29;;;;;;;;;;;23.10;99.90;;;;;;5136919;27;19938;-80
2023/07/10 10:03:55;;;;;;;;;;;23.40;99.90;;;;;;5136656;27;19927;-77
2023/07/10 10:06:25;;;;;;;;;;;23.70;99.90;;;;;;5155438;27;20002;-79
2023/07/10 10:08:51;;;;;;;;;;;23.70;99.90;;;;;;5155280;27;19923;-78
2023/07/10 10:11:17;;;;;;;;;;;23.70;99.90;;;;;;5103081;27;20371;-79
2023/07/10 10:13:47;;;;;;;;;;;23.70;99.90;;;;;;5119307;27;19927;-80
2023/07/10 10:16:13;;;;;;;;;;;23.80;99.90;;;;;;5137012;27;19929;-79
2023/07/10 10:18:48;;;;;;;;;;;23.80;99.90;;;;;;5137988;27;19919;-79
2023/07/10 10:21:16;;;;;;;;;;;23.70;99.90;;;;;;5120223;27;19919;-79
2023/07/10 10:23:43;;;;;;;;;;;23.50;99.90;;;;;;5120313;27;19927;-81
2023/07/10 10:26:28;;;;;;;;;;;23.40;99.90;;;;;;5136693;27;20013;-79
2023/07/10 10:29:09;;;;;;;;;;;23.30;99.90;;;;;;5136162;27;20344;-80
2023/07/10 10:31:37;;;;;;;;;;;23.30;99.90;;;;;;5136884;27;19926;-78
2023/07/10 10:34:23;;;;;;;;;;;23.30;99.90;;;;;;5136384;27;19923;-80
2023/07/10 10:37:04;;;;;;;;;;;23.50;99.90;;;;;;5125391;27;19933;-78
2023/07/10 10:39:35;;;;;;;;;;;23.70;99.90;;;;;;5136585;27;19954;-79
2023/07/10 10:42:03;;;;;;;;;;;24.00;99.90;;;;;;5136412;27;19919;-81
2023/07/10 10:44:35;;;;;;;;;;;24.00;99.90;;;;;;5136724;27;20327;-80
2023/07/10 10:47:12;;;;;;;;;;;23.90;99.90;;;;;;5136269;27;20390;-82
2023/07/10 10:49:57;;;;;;;;;;;24.10;99.90;;;;;;5136109;27;19919;-81
2023/07/10 10:52:41;;;;;;;;;;;24.40;99.90;;;;;;5119205;27;19923;-79
2023/07/10 10:55:30;;;;;;;;;;;24.50;99.90;;;;;;5135753;27;19923;-80
2023/07/10 10:58:06;;;;;;;;;;;24.60;99.90;;;;;;5136074;27;19926;-81
2023/07/10 11:00:37;;;;;;;;;;;24.60;99.90;;;;;;5136179;27;20626;-79
2023/07/10 11:03:03;;;;;;;;;;;24.60;99.90;;;;;;5136287;27;20291;-81
2023/07/10 11:05:45;;;;;;;;;;;24.70;99.90;;;;;;5136754;27;19919;-80
2023/07/10 11:08:16;;;;;;;;;;;24.60;99.90;;;;;;5136155;27;19923;-80
2023/07/10 11:10:43;;;;;;;;;;;24.40;99.90;;;;;;5135961;27;19923;-79
2023/07/10 11:13:22;;;;;;;;;;;24.30;99.90;;;;;;5129584;27;19920;-79
2023/07/10 11:15:47;;;;;;;;;;;24.50;99.90;;;;;;5115876;27;19924;-81
2023/07/10 11:18:15;;;;;;;;;;;24.70;99.90;;;;;;5116066;27;19964;-81
2023/07/10 11:20:40;;;;;;;;;;;24.70;99.90;;;;;;5100541;27;19920;-80
2023/07/10 11:23:26;;;;;;;;;;;24.80;99.90;;;;;;5116143;27;19972;-79
2023/07/10 11:26:02;;;;;;;;;;;24.90;99.90;;;;;;5135400;27;19966;-80
2023/07/10 11:28:30;;;;;;;;;;;25.00;99.90;;;;;;5135134;27;19923;-78
2023/07/10 11:31:14;;;;;;;;;;;25.10;99.90;;;;;;5135114;27;20387;-80
2023/07/10 11:33:41;;;;;;;;;;;25.10;99.90;;;;;;5135872;27;20005;-79
2023/07/10 11:36:13;;;;;;;;;;;25.00;99.90;;;;;;5135417;27;19926;-80
2023/07/10 11:38:58;;;;;;;;;;;24.70;99.90;;;;;;5119007;27;19923;-80
2023/07/10 11:41:31;;;;;;;;;;;24.60;99.90;;;;;;5136620;27;19980;-79
2023/07/10 11:44:15;;;;;;;;;;;24.60;99.90;;;;;;5135487;27;19927;-80
2023/07/10 11:47:10;;;;;;;;;;;24.80;99.90;;;;;;5118052;27;19930;-80
2023/07/10 11:49:51;;;;;;;;;;;25.40;99.90;;;;;;5091600;27;19984;-79
2023/07/10 11:52:16;;;;;;;;;;;25.50;99.90;;;;;;5114953;27;19979;-80
2023/07/10 11:54:42;;;;;;;;;;;25.30;99.90;;;;;;5115029;27;19923;-80
2023/07/10 11:57:11;;;;;;;;;;;25.20;99.90;;;;;;5133213;27;19924;-78
2023/07/10 11:59:55;;;;;;;;;;;25.20;99.90;;;;;;5132844;27;20298;-80
2023/07/10 12:02:26;;;;;;;;;;;25.20;99.90;;;;;;5114195;28;19930;-80
2023/07/10 12:04:52;;;;;;;;;;;25.40;99.90;;;;;;5114471;27;20272;-80
2023/07/10 12:07:17;;;;;;;;;;;25.80;99.90;;;;;;5115081;27;19926;-80
2023/07/10 12:09:48;;;;;;;;;;;26.00;99.90;;;;;;5097475;27;19930;-79
2023/07/10 12:12:13;;;;;;;;;;;26.00;99.90;;;;;;5097232;28;19924;-80
2023/07/10 12:14:39;;;;;;;;;;;26.00;99.90;;;;;;5114851;27;19926;-81
2023/07/10 12:17:10;;;;;;;;;;;26.00;99.90;;;;;;5097103;28;19924;-79
2023/07/10 12:19:36;;;;;;;;;;;25.90;99.90;;;;;;5114432;28;19919;-80
2023/07/10 12:22:19;;;;;;;;;;;25.40;99.90;;;;;;5114103;28;19924;-79
2023/07/10 12:24:49;;;;;;;;;;;25.00;99.90;;;;;;5113957;28;19927;-81
2023/07/10 12:27:14;;;;;;;;;;;24.80;99.90;;;;;;5096994;28;19927;-79
2023/07/10 12:29:50;;;;;;;;;;;24.80;99.90;;;;;;5097110;28;19923;-79
2023/07/10 12:32:16;;;;;;;;;;;24.90;99.90;;;;;;5118217;27;19923;-80
2023/07/10 12:34:41;;;;;;;;;;;24.90;99.90;;;;;;5100842;27;20439;-78
2023/07/10 12:37:09;;;;;;;;;;;24.80;99.90;;;;;;5100743;27;19920;-80
2023/07/10 12:39:36;;;;;;;;;;;24.90;99.90;;;;;;5118554;27;19945;-80
2023/07/10 12:42:02;;;;;;;;;;;25.10;99.90;;;;;;5118268;27;19927;-79
2023/07/10 12:44:28;;;;;;;;;;;25.20;99.90;;;;;;5118254;27;19927;-77
2023/07/10 12:46:55;;;;;;;;;;;25.10;99.90;;;;;;5135736;27;20331;-79
2023/07/10 12:49:23;;;;;;;;;;;25.00;99.90;;;;;;5118344;27;19927;-81
2023/07/10 12:51:49;;;;;;;;;;;24.80;99.90;;;;;;5117902;27;20056;-82
2023/07/10 12:54:27;;;;;;;;;;;24.70;99.90;;;;;;5117941;27;20017;-78
2023/07/10 12:56:54;;;;;;;;;;;24.70;99.90;;;;;;5117837;27;19931;-80
2023/07/10 12:59:26;;;;;;;;;;;24.90;99.90;;;;;;5118125;27;19970;-81
2023/07/10 13:01:57;;;;;;;;;;;25.20;99.90;;;;;;5101240;27;20052;-80
2023/07/10 13:04:26;;;;;;;;;;;25.60;99.90;;;;;;5117650;27;19927;-79
2023/07/10 13:07:00;;;;;;;;;;;25.90;99.90;;;;;;5117576;27;19972;-81
2023/07/10 13:09:30;;;;;;;;;;;26.30;98.90;;;;;;5118084;27;19926;-80
2023/07/10 13:11:55;;;;;;;;;;;26.40;97.70;;;;;;5135840;27;20123;-80
2023/07/10 13:14:33;;;;;;;;;;;26.20;95.40;;;;;;5117637;27;19930;-82
2023/07/10 13:16:59;;;;;;;;;;;26.00;96.00;;;;;;5100164;27;20044;-80
2023/07/10 13:19:25;;;;;;;;;;;26.20;97.10;;;;;;5118486;27;19919;-82
2023/07/10 13:21:51;;;;;;;;;;;26.40;96.30;;;;;;5138285;27;19919;-80
2023/07/10 13:24:17;;;;;;;;;;;26.50;94.80;;;;;;5138002;27;19933;-81
2023/07/10 13:26:44;;;;;;;;;;;26.60;94.10;;;;;;5138023;27;21159;-81
2023/07/10 13:29:11;;;;;;;;;;;26.70;95.30;;;;;;5115532;27;19970;-81
2023/07/10 13:31:37;;;;;;;;;;;26.90;94.00;;;;;;5097723;28;19931;-82
2023/07/10 13:34:02;;;;;;;;;;;27.00;92.80;;;;;;5113908;28;19927;-82
2023/07/10 13:36:28;;;;;;;;;;;27.10;95.50;;;;;;5096697;28;19970;-79
2023/07/10 13:38:54;;;;;;;;;;;27.20;93.90;;;;;;5096870;28;20019;-82
2023/07/10 13:41:20;;;;;;;;;;;27.40;92.80;;;;;;5096683;28;20006;-82
2023/07/10 13:43:46;;;;;;;;;;;27.60;93.30;;;;;;5096558;28;19928;-81
2023/07/10 13:46:24;;;;;;;;;;;27.70;94.20;;;;;;5114720;28;19919;-81
2023/07/10 13:48:50;;;;;;;;;;;27.60;87.80;;;;;;5096761;28;19998;-83
2023/07/10 13:51:17;;;;;;;;;;;27.40;83.50;;;;;;5094389;28;19931;-80
2023/07/10 13:53:43;;;;;;;;;;;27.20;83.60;;;;;;5093804;28;19923;-82
2023/07/10 13:56:13;;;;;;;;;;;27.00;80.20;;;;;;5092860;28;19969;-82
2023/07/10 13:58:39;;;;;;;;;;;26.90;79.30;;;;;;5093690;28;20286;-79
2023/07/10 14:01:04;;;;;;;;;;;26.80;83.40;;;;;;5076096;28;19926;-82
2023/07/10 14:03:30;;;;;;;;;;;27.10;87.50;;;;;;5076289;28;19969;-80
2023/07/10 14:05:56;;;;;;;;;;;27.30;83.00;;;;;;5059984;28;19955;-79
2023/07/10 14:08:26;;;;;;;;;;;27.50;84.10;;;;;;5093039;28;20018;-81
2023/07/10 14:10:52;;;;;;;;;;;27.50;81.20;;;;;;5076452;28;19972;-80
2023/07/10 14:13:18;;;;;;;;;;;27.30;81.70;;;;;;5092919;28;20285;-82
2023/07/10 14:15:43;;;;;;;;;;;27.30;80.90;;;;;;5075855;28;19931;-80
2023/07/10 14:18:12;;;;;;;;;;;27.50;84.00;;;;;;5092471;28;20012;-81
2023/07/10 14:20:37;;;;;;;;;;;27.80;82.30;;;;;;5093087;28;19973;-82
2023/07/10 14:23:10;;;;;;;;;;;27.90;82.50;;;;;;5095605;28;19932;-80
2023/07/10 14:25:35;;;;;;;;;;;27.90;82.20;;;;;;5093813;28;19920;-81